sensor_id;sensor_type;location;lat;lon;timestamp;P1;durP1;ratioP1;P2;durP2;ratioP2
10659;SDS011;5378;53.206;13.316;2022-12-20T00:02:28;25.27;;;10.47;;
10659;SDS011;5378;53.206;13.316;2022-12-20T00:05:15;28.73;;;11.70;;
10659;SDS011;5378;53.206;13.316;2022-12-20T00:08:03;23.60;;;9.80;;
10659;SDS011;5378;53.206;13.316;2022-12-20T00:10:50;24.17;;;11.33;;
10659;SDS011;5378;53.206;13.316;2022-12-20T00:13:38;27.30;;;10.50;;
10659;SDS011;5378;53.206;13.316;2022-12-20T00:16:28;29.00;;;10.20;;
10659;SDS011;5378;53.206;13.316;2022-12-20T00:19:15;31.93;;;10.60;;
10659;SDS011;5378;53.206;13.316;2022-12-20T00:22:02;23.33;;;10.83;;
10659;SDS011;5378;53.206;13.316;2022-12-20T00:24:49;24.27;;;10.60;;
10659;SDS011;5378;53.206;13.316;2022-12-20T00:27:36;27.70;;;13.10;;
10659;SDS011;5378;53.206;13.316;2022-12-20T00:30:23;25.37;;;11.83;;
10659;SDS011;5378;53.206;13.316;2022-12-20T00:33:11;21.90;;;9.13;;
10659;SDS011;5378;53.206;13.316;2022-12-20T00:35:59;24.57;;;10.60;;
10659;SDS011;5378;53.206;13.316;2022-12-20T00:38:46;24.60;;;10.87;;
10659;SDS011;5378;53.206;13.316;2022-12-20T00:41:35;29.47;;;10.90;;
10659;SDS011;5378;53.206;13.316;2022-12-20T00:44:23;33.87;;;11.87;;
10659;SDS011;5378;53.206;13.316;2022-12-20T00:47:10;23.63;;;9.13;;
10659;SDS011;5378;53.206;13.316;2022-12-20T00:49:58;33.67;;;9.90;;
10659;SDS011;5378;53.206;13.316;2022-12-20T00:52:45;30.20;;;11.30;;
10659;SDS011;5378;53.206;13.316;2022-12-20T00:55:32;27.20;;;10.17;;
10659;SDS011;5378;53.206;13.316;2022-12-20T00:58:20;26.93;;;10.03;;
10659;SDS011;5378;53.206;13.316;2022-12-20T01:01:13;31.53;;;10.90;;
10659;SDS011;5378;53.206;13.316;2022-12-20T01:04:05;32.93;;;10.10;;
10659;SDS011;5378;53.206;13.316;2022-12-20T01:06:54;28.40;;;10.47;;
10659;SDS011;5378;53.206;13.316;2022-12-20T01:09:41;22.03;;;9.10;;
10659;SDS011;5378;53.206;13.316;2022-12-20T01:12:29;24.87;;;10.10;;
10659;SDS011;5378;53.206;13.316;2022-12-20T01:15:16;25.93;;;11.37;;
10659;SDS011;5378;53.206;13.316;2022-12-20T01:18:03;21.20;;;9.43;;
10659;SDS011;5378;53.206;13.316;2022-12-20T01:20:59;24.97;;;9.93;;
10659;SDS011;5378;53.206;13.316;2022-12-20T01:23:48;25.43;;;10.23;;
10659;SDS011;5378;53.206;13.316;2022-12-20T01:26:35;26.20;;;10.70;;
10659;SDS011;5378;53.206;13.316;2022-12-20T01:29:22;30.53;;;10.43;;
10659;SDS011;5378;53.206;13.316;2022-12-20T01:32:09;21.87;;;10.00;;
10659;SDS011;5378;53.206;13.316;2022-12-20T01:34:57;25.07;;;9.60;;
10659;SDS011;5378;53.206;13.316;2022-12-20T01:37:44;26.67;;;10.43;;
10659;SDS011;5378;53.206;13.316;2022-12-20T01:40:32;28.63;;;10.23;;
10659;SDS011;5378;53.206;13.316;2022-12-20T01:43:20;27.27;;;10.87;;
10659;SDS011;5378;53.206;13.316;2022-12-20T01:46:07;16.77;;;8.77;;
10659;SDS011;5378;53.206;13.316;2022-12-20T01:48:57;22.90;;;9.80;;
10659;SDS011;5378;53.206;13.316;2022-12-20T01:51:48;27.67;;;10.03;;
10659;SDS011;5378;53.206;13.316;2022-12-20T01:54:39;18.37;;;8.70;;
10659;SDS011;5378;53.206;13.316;2022-12-20T01:57:31;26.60;;;10.17;;
10659;SDS011;5378;53.206;13.316;2022-12-20T02:00:24;23.00;;;10.60;;
10659;SDS011;5378;53.206;13.316;2022-12-20T02:03:11;17.70;;;9.33;;
10659;SDS011;5378;53.206;13.316;2022-12-20T02:06:08;23.00;;;9.27;;
10659;SDS011;5378;53.206;13.316;2022-12-20T02:09:02;28.20;;;10.83;;
10659;SDS011;5378;53.206;13.316;2022-12-20T02:11:57;23.73;;;10.23;;
10659;SDS011;5378;53.206;13.316;2022-12-20T02:14:58;35.03;;;9.00;;
10659;SDS011;5378;53.206;13.316;2022-12-20T02:18:01;26.73;;;10.73;;
10659;SDS011;5378;53.206;13.316;2022-12-20T02:21:17;25.03;;;10.70;;
10659;SDS011;5378;53.206;13.316;2022-12-20T02:27:43;28.97;;;9.73;;
10659;SDS011;5378;53.206;13.316;2022-12-20T02:30:38;29.37;;;9.83;;
10659;SDS011;5378;53.206;13.316;2022-12-20T02:33:28;21.20;;;8.93;;
10659;SDS011;5378;53.206;13.316;2022-12-20T02:36:16;19.33;;;8.10;;
10659;SDS011;5378;53.206;13.316;2022-12-20T02:39:07;19.40;;;9.00;;
10659;SDS011;5378;53.206;13.316;2022-12-20T02:41:56;19.97;;;9.17;;
10659;SDS011;5378;53.206;13.316;2022-12-20T02:44:48;20.80;;;9.60;;
10659;SDS011;5378;53.206;13.316;2022-12-20T02:47:57;22.13;;;9.97;;
10659;SDS011;5378;53.206;13.316;2022-12-20T02:50:50;20.70;;;9.00;;
10659;SDS011;5378;53.206;13.316;2022-12-20T02:53:40;21.40;;;8.37;;
10659;SDS011;5378;53.206;13.316;2022-12-20T02:56:31;19.33;;;8.67;;
10659;SDS011;5378;53.206;13.316;2022-12-20T02:59:23;21.07;;;10.10;;
10659;SDS011;5378;53.206;13.316;2022-12-20T03:02:14;19.63;;;9.00;;
10659;SDS011;5378;53.206;13.316;2022-12-20T03:05:04;18.73;;;8.43;;
10659;SDS011;5378;53.206;13.316;2022-12-20T03:07:52;23.63;;;9.40;;
10659;SDS011;5378;53.206;13.316;2022-12-20T03:10:42;19.17;;;9.20;;
10659;SDS011;5378;53.206;13.316;2022-12-20T03:13:29;23.43;;;8.93;;
10659;SDS011;5378;53.206;13.316;2022-12-20T03:16:20;20.37;;;9.43;;
10659;SDS011;5378;53.206;13.316;2022-12-20T03:19:08;26.00;;;9.73;;
10659;SDS011;5378;53.206;13.316;2022-12-20T03:21:56;23.00;;;9.50;;
10659;SDS011;5378;53.206;13.316;2022-12-20T03:24:44;26.73;;;10.03;;
10659;SDS011;5378;53.206;13.316;2022-12-20T03:27:31;17.30;;;8.37;;
10659;SDS011;5378;53.206;13.316;2022-12-20T03:30:20;17.37;;;8.20;;
10659;SDS011;5378;53.206;13.316;2022-12-20T03:33:08;23.80;;;8.57;;
10659;SDS011;5378;53.206;13.316;2022-12-20T03:35:56;20.63;;;8.57;;
10659;SDS011;5378;53.206;13.316;2022-12-20T03:38:45;21.53;;;8.50;;
10659;SDS011;5378;53.206;13.316;2022-12-20T03:41:32;24.07;;;9.00;;
10659;SDS011;5378;53.206;13.316;2022-12-20T03:44:21;24.30;;;9.30;;
10659;SDS011;5378;53.206;13.316;2022-12-20T03:47:09;24.03;;;9.73;;
10659;SDS011;5378;53.206;13.316;2022-12-20T03:49:56;21.07;;;7.30;;
10659;SDS011;5378;53.206;13.316;2022-12-20T03:52:45;22.37;;;9.67;;
10659;SDS011;5378;53.206;13.316;2022-12-20T03:55:35;17.30;;;8.63;;
10659;SDS011;5378;53.206;13.316;2022-12-20T03:58:22;20.07;;;8.53;;
10659;SDS011;5378;53.206;13.316;2022-12-20T04:01:17;21.10;;;9.13;;
10659;SDS011;5378;53.206;13.316;2022-12-20T04:04:06;27.93;;;9.50;;
10659;SDS011;5378;53.206;13.316;2022-12-20T04:06:53;21.37;;;8.93;;
10659;SDS011;5378;53.206;13.316;2022-12-20T04:09:41;18.67;;;9.40;;
10659;SDS011;5378;53.206;13.316;2022-12-20T04:12:32;22.13;;;8.97;;
10659;SDS011;5378;53.206;13.316;2022-12-20T04:15:21;23.17;;;8.57;;
10659;SDS011;5378;53.206;13.316;2022-12-20T04:18:08;17.57;;;8.93;;
10659;SDS011;5378;53.206;13.316;2022-12-20T04:20:55;26.70;;;9.50;;
10659;SDS011;5378;53.206;13.316;2022-12-20T04:23:47;19.10;;;9.53;;
10659;SDS011;5378;53.206;13.316;2022-12-20T04:26:35;19.30;;;8.53;;
10659;SDS011;5378;53.206;13.316;2022-12-20T04:29:24;17.17;;;8.13;;
10659;SDS011;5378;53.206;13.316;2022-12-20T04:32:11;20.70;;;9.47;;
10659;SDS011;5378;53.206;13.316;2022-12-20T04:34:58;20.73;;;10.07;;
10659;SDS011;5378;53.206;13.316;2022-12-20T04:37:45;21.20;;;8.23;;
10659;SDS011;5378;53.206;13.316;2022-12-20T04:40:33;30.13;;;8.80;;
10659;SDS011;5378;53.206;13.316;2022-12-20T04:43:22;21.17;;;8.60;;
10659;SDS011;5378;53.206;13.316;2022-12-20T04:46:14;23.07;;;9.03;;
10659;SDS011;5378;53.206;13.316;2022-12-20T04:49:01;20.10;;;8.27;;
10659;SDS011;5378;53.206;13.316;2022-12-20T04:51:51;20.00;;;8.67;;
10659;SDS011;5378;53.206;13.316;2022-12-20T04:54:38;32.93;;;10.67;;
10659;SDS011;5378;53.206;13.316;2022-12-20T04:57:32;27.93;;;9.80;;
10659;SDS011;5378;53.206;13.316;2022-12-20T05:00:21;27.00;;;10.77;;
10659;SDS011;5378;53.206;13.316;2022-12-20T05:03:18;21.57;;;8.97;;
10659;SDS011;5378;53.206;13.316;2022-12-20T05:06:06;18.70;;;8.30;;
10659;SDS011;5378;53.206;13.316;2022-12-20T05:08:54;25.80;;;8.00;;
10659;SDS011;5378;53.206;13.316;2022-12-20T05:11:42;19.13;;;8.07;;
10659;SDS011;5378;53.206;13.316;2022-12-20T05:14:30;20.20;;;8.10;;
10659;SDS011;5378;53.206;13.316;2022-12-20T05:17:17;24.63;;;9.20;;
10659;SDS011;5378;53.206;13.316;2022-12-20T05:20:06;17.43;;;8.30;;
10659;SDS011;5378;53.206;13.316;2022-12-20T05:22:55;29.10;;;10.33;;
10659;SDS011;5378;53.206;13.316;2022-12-20T05:26:26;17.60;;;8.20;;
10659;SDS011;5378;53.206;13.316;2022-12-20T05:29:18;24.77;;;10.77;;
10659;SDS011;5378;53.206;13.316;2022-12-20T05:32:05;24.13;;;10.87;;
10659;SDS011;5378;53.206;13.316;2022-12-20T05:34:57;18.30;;;9.30;;
10659;SDS011;5378;53.206;13.316;2022-12-20T05:37:47;19.00;;;9.13;;
10659;SDS011;5378;53.206;13.316;2022-12-20T05:40:37;28.77;;;9.30;;
10659;SDS011;5378;53.206;13.316;2022-12-20T05:43:26;27.57;;;10.03;;
10659;SDS011;5378;53.206;13.316;2022-12-20T05:46:14;22.63;;;10.37;;
10659;SDS011;5378;53.206;13.316;2022-12-20T05:49:12;25.60;;;9.20;;
10659;SDS011;5378;53.206;13.316;2022-12-20T05:51:59;18.93;;;8.90;;
10659;SDS011;5378;53.206;13.316;2022-12-20T05:54:48;20.13;;;10.00;;
10659;SDS011;5378;53.206;13.316;2022-12-20T05:57:38;28.63;;;9.90;;
10659;SDS011;5378;53.206;13.316;2022-12-20T06:00:25;27.10;;;9.87;;
10659;SDS011;5378;53.206;13.316;2022-12-20T06:03:13;17.63;;;8.63;;
10659;SDS011;5378;53.206;13.316;2022-12-20T06:06:00;22.27;;;8.30;;
10659;SDS011;5378;53.206;13.316;2022-12-20T06:08:49;23.07;;;10.90;;
10659;SDS011;5378;53.206;13.316;2022-12-20T06:11:55;26.30;;;10.73;;
10659;SDS011;5378;53.206;13.316;2022-12-20T06:14:42;25.03;;;9.97;;
10659;SDS011;5378;53.206;13.316;2022-12-20T06:17:30;30.03;;;10.80;;
10659;SDS011;5378;53.206;13.316;2022-12-20T06:20:18;19.10;;;8.80;;
10659;SDS011;5378;53.206;13.316;2022-12-20T06:23:07;28.77;;;10.93;;
10659;SDS011;5378;53.206;13.316;2022-12-20T06:26:01;25.57;;;12.30;;
10659;SDS011;5378;53.206;13.316;2022-12-20T06:28:53;31.83;;;12.40;;
10659;SDS011;5378;53.206;13.316;2022-12-20T06:31:54;28.23;;;11.77;;
10659;SDS011;5378;53.206;13.316;2022-12-20T06:34:41;25.70;;;9.87;;
10659;SDS011;5378;53.206;13.316;2022-12-20T06:37:29;28.13;;;9.10;;
10659;SDS011;5378;53.206;13.316;2022-12-20T06:40:17;22.30;;;10.80;;
10659;SDS011;5378;53.206;13.316;2022-12-20T06:43:04;25.97;;;10.77;;
10659;SDS011;5378;53.206;13.316;2022-12-20T06:45:52;22.50;;;9.97;;
10659;SDS011;5378;53.206;13.316;2022-12-20T06:48:40;26.27;;;9.50;;
10659;SDS011;5378;53.206;13.316;2022-12-20T06:51:28;23.60;;;9.70;;
10659;SDS011;5378;53.206;13.316;2022-12-20T06:54:16;26.30;;;9.03;;
10659;SDS011;5378;53.206;13.316;2022-12-20T06:57:03;26.70;;;10.63;;
10659;SDS011;5378;53.206;13.316;2022-12-20T06:59:51;23.40;;;10.60;;
10659;SDS011;5378;53.206;13.316;2022-12-20T07:02:39;18.60;;;10.00;;
10659;SDS011;5378;53.206;13.316;2022-12-20T07:05:27;26.17;;;10.97;;
10659;SDS011;5378;53.206;13.316;2022-12-20T07:08:14;19.97;;;9.67;;
10659;SDS011;5378;53.206;13.316;2022-12-20T07:11:04;19.53;;;8.43;;
10659;SDS011;5378;53.206;13.316;2022-12-20T07:13:53;25.17;;;10.10;;
10659;SDS011;5378;53.206;13.316;2022-12-20T07:16:41;31.27;;;11.27;;
10659;SDS011;5378;53.206;13.316;2022-12-20T07:19:30;30.97;;;10.97;;
10659;SDS011;5378;53.206;13.316;2022-12-20T07:22:17;26.83;;;10.77;;
10659;SDS011;5378;53.206;13.316;2022-12-20T07:25:05;24.97;;;12.30;;
10659;SDS011;5378;53.206;13.316;2022-12-20T07:27:52;28.10;;;11.93;;
10659;SDS011;5378;53.206;13.316;2022-12-20T07:30:39;24.60;;;12.50;;
10659;SDS011;5378;53.206;13.316;2022-12-20T07:33:26;31.90;;;11.13;;
10659;SDS011;5378;53.206;13.316;2022-12-20T07:36:15;26.90;;;11.97;;
10659;SDS011;5378;53.206;13.316;2022-12-20T07:39:02;25.40;;;12.40;;
10659;SDS011;5378;53.206;13.316;2022-12-20T07:41:51;33.17;;;13.10;;
10659;SDS011;5378;53.206;13.316;2022-12-20T07:44:40;20.93;;;10.97;;
10659;SDS011;5378;53.206;13.316;2022-12-20T07:47:27;32.33;;;12.70;;
10659;SDS011;5378;53.206;13.316;2022-12-20T07:50:15;37.70;;;15.97;;
10659;SDS011;5378;53.206;13.316;2022-12-20T07:53:04;51.57;;;18.40;;
10659;SDS011;5378;53.206;13.316;2022-12-20T07:55:51;52.37;;;20.93;;
10659;SDS011;5378;53.206;13.316;2022-12-20T07:58:39;44.90;;;17.70;;
10659;SDS011;5378;53.206;13.316;2022-12-20T08:01:28;62.30;;;22.20;;
10659;SDS011;5378;53.206;13.316;2022-12-20T08:04:17;39.27;;;14.60;;
10659;SDS011;5378;53.206;13.316;2022-12-20T08:07:06;36.73;;;15.47;;
10659;SDS011;5378;53.206;13.316;2022-12-20T08:09:55;43.27;;;15.80;;
10659;SDS011;5378;53.206;13.316;2022-12-20T08:12:43;43.00;;;17.10;;
10659;SDS011;5378;53.206;13.316;2022-12-20T08:15:32;34.90;;;15.77;;
10659;SDS011;5378;53.206;13.316;2022-12-20T08:18:19;38.80;;;15.90;;
10659;SDS011;5378;53.206;13.316;2022-12-20T08:21:06;52.47;;;21.37;;
10659;SDS011;5378;53.206;13.316;2022-12-20T08:23:55;27.97;;;13.00;;
10659;SDS011;5378;53.206;13.316;2022-12-20T08:26:44;41.23;;;13.77;;
10659;SDS011;5378;53.206;13.316;2022-12-20T08:29:31;46.33;;;18.13;;
10659;SDS011;5378;53.206;13.316;2022-12-20T08:32:18;40.50;;;16.17;;
10659;SDS011;5378;53.206;13.316;2022-12-20T08:35:05;32.83;;;13.00;;
10659;SDS011;5378;53.206;13.316;2022-12-20T08:37:53;29.37;;;11.90;;
10659;SDS011;5378;53.206;13.316;2022-12-20T08:40:41;24.07;;;11.63;;
10659;SDS011;5378;53.206;13.316;2022-12-20T08:43:29;31.70;;;11.40;;
10659;SDS011;5378;53.206;13.316;2022-12-20T08:46:16;28.17;;;11.43;;
10659;SDS011;5378;53.206;13.316;2022-12-20T08:49:04;26.83;;;12.40;;
10659;SDS011;5378;53.206;13.316;2022-12-20T08:51:51;20.87;;;10.17;;
10659;SDS011;5378;53.206;13.316;2022-12-20T08:54:38;23.27;;;11.30;;
10659;SDS011;5378;53.206;13.316;2022-12-20T08:57:25;23.47;;;11.10;;
10659;SDS011;5378;53.206;13.316;2022-12-20T09:00:14;21.63;;;10.07;;
10659;SDS011;5378;53.206;13.316;2022-12-20T09:03:01;25.33;;;11.23;;
10659;SDS011;5378;53.206;13.316;2022-12-20T09:05:49;32.07;;;13.50;;
10659;SDS011;5378;53.206;13.316;2022-12-20T09:08:36;23.20;;;10.17;;
10659;SDS011;5378;53.206;13.316;2022-12-20T09:11:25;29.93;;;12.40;;
10659;SDS011;5378;53.206;13.316;2022-12-20T09:14:12;31.00;;;12.90;;
10659;SDS011;5378;53.206;13.316;2022-12-20T09:17:01;30.17;;;13.17;;
10659;SDS011;5378;53.206;13.316;2022-12-20T09:19:48;32.83;;;12.83;;
10659;SDS011;5378;53.206;13.316;2022-12-20T09:22:35;25.63;;;12.33;;
10659;SDS011;5378;53.206;13.316;2022-12-20T09:25:22;40.70;;;16.87;;
10659;SDS011;5378;53.206;13.316;2022-12-20T09:28:09;35.07;;;14.30;;
10659;SDS011;5378;53.206;13.316;2022-12-20T09:30:57;31.37;;;12.30;;
10659;SDS011;5378;53.206;13.316;2022-12-20T09:33:46;36.10;;;16.03;;
10659;SDS011;5378;53.206;13.316;2022-12-20T09:36:33;32.53;;;14.87;;
10659;SDS011;5378;53.206;13.316;2022-12-20T09:39:21;35.43;;;15.57;;
10659;SDS011;5378;53.206;13.316;2022-12-20T09:42:08;37.63;;;16.07;;
10659;SDS011;5378;53.206;13.316;2022-12-20T09:44:56;36.60;;;15.43;;
10659;SDS011;5378;53.206;13.316;2022-12-20T09:47:48;42.13;;;18.07;;
10659;SDS011;5378;53.206;13.316;2022-12-20T09:50:40;36.53;;;15.60;;
10659;SDS011;5378;53.206;13.316;2022-12-20T09:53:35;38.93;;;18.40;;
10659;SDS011;5378;53.206;13.316;2022-12-20T09:56:32;37.27;;;15.00;;
10659;SDS011;5378;53.206;13.316;2022-12-20T09:59:22;37.63;;;16.53;;
10659;SDS011;5378;53.206;13.316;2022-12-20T10:02:09;37.10;;;16.90;;
10659;SDS011;5378;53.206;13.316;2022-12-20T10:05:19;40.97;;;17.70;;
10659;SDS011;5378;53.206;13.316;2022-12-20T10:08:14;42.03;;;16.83;;
10659;SDS011;5378;53.206;13.316;2022-12-20T10:11:19;44.83;;;17.70;;
10659;SDS011;5378;53.206;13.316;2022-12-20T10:14:29;36.67;;;17.43;;
10659;SDS011;5378;53.206;13.316;2022-12-20T10:17:32;27.73;;;13.17;;
10659;SDS011;5378;53.206;13.316;2022-12-20T10:20:29;32.77;;;13.40;;
10659;SDS011;5378;53.206;13.316;2022-12-20T10:23:29;27.30;;;11.00;;
10659;SDS011;5378;53.206;13.316;2022-12-20T10:26:22;23.07;;;10.63;;
10659;SDS011;5378;53.206;13.316;2022-12-20T10:29:10;28.43;;;11.87;;
10659;SDS011;5378;53.206;13.316;2022-12-20T10:31:57;23.33;;;10.57;;
10659;SDS011;5378;53.206;13.316;2022-12-20T10:34:49;27.43;;;12.77;;
10659;SDS011;5378;53.206;13.316;2022-12-20T10:37:42;21.83;;;11.53;;
10659;SDS011;5378;53.206;13.316;2022-12-20T10:41:00;30.90;;;14.43;;
10659;SDS011;5378;53.206;13.316;2022-12-20T10:44:15;36.63;;;15.77;;
10659;SDS011;5378;53.206;13.316;2022-12-20T10:47:19;26.60;;;13.37;;
10659;SDS011;5378;53.206;13.316;2022-12-20T10:50:14;29.30;;;14.33;;
10659;SDS011;5378;53.206;13.316;2022-12-20T10:53:11;22.20;;;10.67;;
10659;SDS011;5378;53.206;13.316;2022-12-20T10:56:15;26.80;;;11.00;;
10659;SDS011;5378;53.206;13.316;2022-12-20T10:59:22;25.77;;;13.80;;
10659;SDS011;5378;53.206;13.316;2022-12-20T11:02:23;28.13;;;12.03;;
10659;SDS011;5378;53.206;13.316;2022-12-20T11:05:22;30.57;;;13.37;;
10659;SDS011;5378;53.206;13.316;2022-12-20T11:08:13;27.93;;;11.77;;
10659;SDS011;5378;53.206;13.316;2022-12-20T11:11:20;26.80;;;11.20;;
10659;SDS011;5378;53.206;13.316;2022-12-20T11:14:12;25.30;;;10.63;;
10659;SDS011;5378;53.206;13.316;2022-12-20T11:17:02;23.90;;;11.60;;
10659;SDS011;5378;53.206;13.316;2022-12-20T11:20:03;25.63;;;11.83;;
10659;SDS011;5378;53.206;13.316;2022-12-20T11:23:11;18.10;;;8.83;;
10659;SDS011;5378;53.206;13.316;2022-12-20T11:26:13;29.27;;;11.67;;
10659;SDS011;5378;53.206;13.316;2022-12-20T11:29:18;23.90;;;11.50;;
10659;SDS011;5378;53.206;13.316;2022-12-20T11:32:21;22.70;;;9.63;;
10659;SDS011;5378;53.206;13.316;2022-12-20T11:35:16;22.87;;;12.00;;
10659;SDS011;5378;53.206;13.316;2022-12-20T11:38:10;29.07;;;13.50;;
10659;SDS011;5378;53.206;13.316;2022-12-20T11:41:07;25.30;;;12.30;;
10659;SDS011;5378;53.206;13.316;2022-12-20T11:44:06;26.00;;;12.57;;
10659;SDS011;5378;53.206;13.316;2022-12-20T11:47:32;30.63;;;12.67;;
10659;SDS011;5378;53.206;13.316;2022-12-20T11:50:41;26.20;;;11.00;;
10659;SDS011;5378;53.206;13.316;2022-12-20T11:53:44;25.67;;;12.37;;
10659;SDS011;5378;53.206;13.316;2022-12-20T11:56:39;24.87;;;11.87;;
10659;SDS011;5378;53.206;13.316;2022-12-20T11:59:33;27.43;;;14.90;;
10659;SDS011;5378;53.206;13.316;2022-12-20T12:02:28;29.50;;;13.50;;
10659;SDS011;5378;53.206;13.316;2022-12-20T12:05:22;25.47;;;11.37;;
10659;SDS011;5378;53.206;13.316;2022-12-20T12:08:26;25.23;;;11.90;;
10659;SDS011;5378;53.206;13.316;2022-12-20T12:11:20;25.90;;;11.53;;
10659;SDS011;5378;53.206;13.316;2022-12-20T12:14:37;31.23;;;10.30;;
10659;SDS011;5378;53.206;13.316;2022-12-20T12:17:33;34.47;;;13.33;;
10659;SDS011;5378;53.206;13.316;2022-12-20T12:20:28;22.50;;;11.60;;
10659;SDS011;5378;53.206;13.316;2022-12-20T12:23:23;20.27;;;9.60;;
10659;SDS011;5378;53.206;13.316;2022-12-20T12:26:17;22.40;;;10.43;;
10659;SDS011;5378;53.206;13.316;2022-12-20T12:29:09;26.63;;;11.03;;
10659;SDS011;5378;53.206;13.316;2022-12-20T12:32:01;22.90;;;11.07;;
10659;SDS011;5378;53.206;13.316;2022-12-20T12:34:56;26.83;;;12.53;;
10659;SDS011;5378;53.206;13.316;2022-12-20T12:37:53;26.20;;;11.13;;
10659;SDS011;5378;53.206;13.316;2022-12-20T12:40:53;24.50;;;10.83;;
10659;SDS011;5378;53.206;13.316;2022-12-20T12:43:56;24.40;;;9.43;;
10659;SDS011;5378;53.206;13.316;2022-12-20T12:46:47;20.40;;;9.53;;
10659;SDS011;5378;53.206;13.316;2022-12-20T12:49:40;23.07;;;11.70;;
10659;SDS011;5378;53.206;13.316;2022-12-20T12:52:36;16.03;;;9.73;;
10659;SDS011;5378;53.206;13.316;2022-12-20T12:55:38;36.60;;;11.77;;
10659;SDS011;5378;53.206;13.316;2022-12-20T12:58:29;26.77;;;10.90;;
10659;SDS011;5378;53.206;13.316;2022-12-20T13:01:45;25.60;;;11.93;;
10659;SDS011;5378;53.206;13.316;2022-12-20T13:07:42;24.97;;;10.40;;
10659;SDS011;5378;53.206;13.316;2022-12-20T13:13:42;18.63;;;9.93;;
10659;SDS011;5378;53.206;13.316;2022-12-20T13:16:30;23.73;;;11.77;;
10659;SDS011;5378;53.206;13.316;2022-12-20T13:19:37;27.97;;;11.50;;
10659;SDS011;5378;53.206;13.316;2022-12-20T13:22:26;21.17;;;9.67;;
10659;SDS011;5378;53.206;13.316;2022-12-20T13:25:26;23.67;;;10.27;;
10659;SDS011;5378;53.206;13.316;2022-12-20T13:31:31;26.50;;;9.30;;
10659;SDS011;5378;53.206;13.316;2022-12-20T13:34:36;26.73;;;11.43;;
10659;SDS011;5378;53.206;13.316;2022-12-20T13:37:27;21.90;;;10.30;;
10659;SDS011;5378;53.206;13.316;2022-12-20T13:40:39;20.77;;;10.33;;
10659;SDS011;5378;53.206;13.316;2022-12-20T13:43:30;20.70;;;10.40;;
10659;SDS011;5378;53.206;13.316;2022-12-20T13:46:24;18.13;;;9.53;;
10659;SDS011;5378;53.206;13.316;2022-12-20T13:49:19;27.57;;;10.27;;
10659;SDS011;5378;53.206;13.316;2022-12-20T13:52:15;25.40;;;9.77;;
10659;SDS011;5378;53.206;13.316;2022-12-20T13:55:15;23.43;;;10.10;;
10659;SDS011;5378;53.206;13.316;2022-12-20T13:58:11;22.80;;;10.80;;
10659;SDS011;5378;53.206;13.316;2022-12-20T14:01:02;23.00;;;11.00;;
10659;SDS011;5378;53.206;13.316;2022-12-20T14:03:50;21.97;;;9.23;;
10659;SDS011;5378;53.206;13.316;2022-12-20T14:06:39;17.90;;;9.30;;
10659;SDS011;5378;53.206;13.316;2022-12-20T14:09:27;30.67;;;10.20;;
10659;SDS011;5378;53.206;13.316;2022-12-20T14:12:18;24.33;;;10.00;;
10659;SDS011;5378;53.206;13.316;2022-12-20T14:15:19;17.53;;;7.97;;
10659;SDS011;5378;53.206;13.316;2022-12-20T14:18:15;17.57;;;8.47;;
10659;SDS011;5378;53.206;13.316;2022-12-20T14:21:04;19.27;;;9.77;;
10659;SDS011;5378;53.206;13.316;2022-12-20T14:23:53;28.43;;;9.00;;
10659;SDS011;5378;53.206;13.316;2022-12-20T14:26:42;17.00;;;7.57;;
10659;SDS011;5378;53.206;13.316;2022-12-20T14:29:34;20.30;;;9.83;;
10659;SDS011;5378;53.206;13.316;2022-12-20T14:32:21;16.10;;;8.40;;
10659;SDS011;5378;53.206;13.316;2022-12-20T14:35:17;20.13;;;8.07;;
10659;SDS011;5378;53.206;13.316;2022-12-20T14:38:18;18.73;;;8.17;;
10659;SDS011;5378;53.206;13.316;2022-12-20T14:44:16;22.07;;;9.93;;
10659;SDS011;5378;53.206;13.316;2022-12-20T14:47:12;17.90;;;8.10;;
10659;SDS011;5378;53.206;13.316;2022-12-20T14:50:04;18.63;;;8.80;;
10659;SDS011;5378;53.206;13.316;2022-12-20T14:53:02;20.03;;;8.83;;
10659;SDS011;5378;53.206;13.316;2022-12-20T14:55:56;15.73;;;8.53;;
10659;SDS011;5378;53.206;13.316;2022-12-20T14:58:43;20.50;;;8.93;;
10659;SDS011;5378;53.206;13.316;2022-12-20T15:01:31;17.00;;;7.37;;
10659;SDS011;5378;53.206;13.316;2022-12-20T15:04:24;15.23;;;8.00;;
10659;SDS011;5378;53.206;13.316;2022-12-20T15:07:27;13.70;;;7.50;;
10659;SDS011;5378;53.206;13.316;2022-12-20T15:10:15;19.40;;;8.00;;
10659;SDS011;5378;53.206;13.316;2022-12-20T15:13:03;16.17;;;7.80;;
10659;SDS011;5378;53.206;13.316;2022-12-20T15:15:50;19.10;;;9.30;;
10659;SDS011;5378;53.206;13.316;2022-12-20T15:18:37;17.63;;;8.50;;
10659;SDS011;5378;53.206;13.316;2022-12-20T15:21:27;29.33;;;7.60;;
10659;SDS011;5378;53.206;13.316;2022-12-20T15:24:16;17.53;;;7.43;;
10659;SDS011;5378;53.206;13.316;2022-12-20T15:27:08;20.83;;;7.70;;
10659;SDS011;5378;53.206;13.316;2022-12-20T15:29:59;17.10;;;8.93;;
10659;SDS011;5378;53.206;13.316;2022-12-20T15:32:46;13.13;;;7.07;;
10659;SDS011;5378;53.206;13.316;2022-12-20T15:35:39;17.03;;;8.40;;
10659;SDS011;5378;53.206;13.316;2022-12-20T15:38:27;17.23;;;6.73;;
10659;SDS011;5378;53.206;13.316;2022-12-20T15:41:26;13.50;;;7.17;;
10659;SDS011;5378;53.206;13.316;2022-12-20T15:44:16;16.83;;;7.00;;
10659;SDS011;5378;53.206;13.316;2022-12-20T15:47:07;19.20;;;7.57;;
10659;SDS011;5378;53.206;13.316;2022-12-20T15:49:56;23.30;;;8.13;;
10659;SDS011;5378;53.206;13.316;2022-12-20T15:52:43;16.17;;;7.70;;
10659;SDS011;5378;53.206;13.316;2022-12-20T15:55:31;17.33;;;6.83;;
10659;SDS011;5378;53.206;13.316;2022-12-20T15:58:24;20.00;;;8.17;;
10659;SDS011;5378;53.206;13.316;2022-12-20T16:01:12;15.90;;;7.60;;
10659;SDS011;5378;53.206;13.316;2022-12-20T16:04:04;13.97;;;6.30;;
10659;SDS011;5378;53.206;13.316;2022-12-20T16:06:52;11.60;;;6.73;;
10659;SDS011;5378;53.206;13.316;2022-12-20T16:09:39;13.20;;;6.53;;
10659;SDS011;5378;53.206;13.316;2022-12-20T16:12:28;12.90;;;6.00;;
10659;SDS011;5378;53.206;13.316;2022-12-20T16:15:18;13.73;;;7.10;;
10659;SDS011;5378;53.206;13.316;2022-12-20T16:18:07;13.03;;;7.43;;
10659;SDS011;5378;53.206;13.316;2022-12-20T16:20:54;18.77;;;7.30;;
10659;SDS011;5378;53.206;13.316;2022-12-20T16:23:41;15.73;;;7.90;;
10659;SDS011;5378;53.206;13.316;2022-12-20T16:26:28;17.80;;;7.73;;
10659;SDS011;5378;53.206;13.316;2022-12-20T16:29:16;18.37;;;8.47;;
10659;SDS011;5378;53.206;13.316;2022-12-20T16:32:07;21.27;;;8.90;;
10659;SDS011;5378;53.206;13.316;2022-12-20T16:34:59;19.90;;;8.47;;
10659;SDS011;5378;53.206;13.316;2022-12-20T16:37:46;16.47;;;7.33;;
10659;SDS011;5378;53.206;13.316;2022-12-20T16:40:33;15.03;;;8.20;;
10659;SDS011;5378;53.206;13.316;2022-12-20T16:43:21;15.40;;;8.10;;
10659;SDS011;5378;53.206;13.316;2022-12-20T16:46:10;13.87;;;7.30;;
10659;SDS011;5378;53.206;13.316;2022-12-20T16:48:59;18.53;;;8.97;;
10659;SDS011;5378;53.206;13.316;2022-12-20T16:51:47;19.40;;;8.70;;
10659;SDS011;5378;53.206;13.316;2022-12-20T16:54:35;20.97;;;9.20;;
10659;SDS011;5378;53.206;13.316;2022-12-20T16:57:22;19.97;;;10.47;;
10659;SDS011;5378;53.206;13.316;2022-12-20T17:00:11;22.40;;;8.40;;
10659;SDS011;5378;53.206;13.316;2022-12-20T17:03:03;30.07;;;10.97;;
10659;SDS011;5378;53.206;13.316;2022-12-20T17:05:52;24.23;;;9.93;;
10659;SDS011;5378;53.206;13.316;2022-12-20T17:08:41;15.27;;;9.40;;